createdAt,value
2019-03-23T00:00:41.118Z,6.70
2019-03-23T00:03:12.559Z,6.70
2019-03-23T00:05:43.859Z,6.60
2019-03-23T00:08:15.040Z,6.60
2019-03-23T00:10:46.349Z,6.60
2019-03-23T00:13:17.495Z,6.50
2019-03-23T00:15:49.204Z,6.50
2019-03-23T00:18:20.427Z,6.40
2019-03-23T00:20:52.103Z,6.40
2019-03-23T00:23:23.418Z,6.40
2019-03-23T00:25:54.720Z,6.40
2019-03-23T00:28:25.933Z,6.30
2019-03-23T00:30:57.241Z,6.30
2019-03-23T00:33:28.583Z,6.30
2019-03-23T00:35:59.806Z,6.30
2019-03-23T00:38:31.091Z,6.20
2019-03-23T00:41:02.577Z,6.20
2019-03-23T00:43:33.867Z,6.20
2019-03-23T00:46:05.107Z,6.20
2019-03-23T00:48:36.333Z,6.20
2019-03-23T00:51:08.626Z,6.20
2019-03-23T00:53:39.900Z,6.20
2019-03-23T00:56:11.193Z,6.20
2019-03-23T00:58:42.424Z,6.20
2019-03-23T01:01:13.695Z,6.20
2019-03-23T01:03:44.872Z,6.20
2019-03-23T01:06:16.185Z,6.30
2019-03-23T01:08:47.448Z,6.20
2019-03-23T01:11:18.690Z,6.20
2019-03-23T01:13:49.882Z,6.20
2019-03-23T01:16:21.420Z,6.20
2019-03-23T01:18:52.702Z,6.20
2019-03-23T01:21:24.008Z,6.20
2019-03-23T01:23:55.452Z,6.10
2019-03-23T01:26:26.782Z,6.10
2019-03-23T01:28:58.150Z,6.10
2019-03-23T01:31:29.557Z,6.10
2019-03-23T01:34:00.956Z,6.10
2019-03-23T01:36:32.259Z,6.10
2019-03-23T01:39:04.341Z,6.20
2019-03-23T01:41:35.599Z,6.20
2019-03-23T01:44:06.960Z,6.20
2019-03-23T01:46:38.241Z,6.20
2019-03-23T01:49:09.540Z,6.30
2019-03-23T01:51:41.129Z,6.30
2019-03-23T01:54:13.351Z,6.40
2019-03-23T01:56:44.561Z,6.40
2019-03-23T01:59:15.836Z,6.40
2019-03-23T02:01:47.273Z,6.50
2019-03-23T02:04:18.565Z,6.50
2019-03-23T02:06:49.968Z,6.50
2019-03-23T02:09:21.245Z,6.50
2019-03-23T02:11:52.568Z,6.50
2019-03-23T02:14:23.838Z,6.60
2019-03-23T02:16:55.350Z,6.60
2019-03-23T02:19:26.618Z,6.60
2019-03-23T02:21:57.941Z,6.70
2019-03-23T02:24:29.240Z,6.70
2019-03-23T02:27:00.549Z,6.70
2019-03-23T02:29:31.821Z,6.70
2019-03-23T02:32:03.190Z,6.80
2019-03-23T02:34:34.343Z,6.80
2019-03-23T02:37:05.797Z,6.80
2019-03-23T02:39:37.108Z,6.90
2019-03-23T02:42:08.492Z,6.90
2019-03-23T02:44:39.701Z,6.90
2019-03-23T02:47:10.977Z,6.90
2019-03-23T02:49:42.325Z,6.90
2019-03-23T02:52:13.552Z,6.90
2019-03-23T02:54:44.807Z,7.00
2019-03-23T02:57:16.265Z,7.00
2019-03-23T02:59:47.509Z,7.00
2019-03-23T03:02:18.713Z,7.10
2019-03-23T03:04:50.021Z,7.10
2019-03-23T03:07:21.413Z,7.10
2019-03-23T03:09:52.812Z,7.10
2019-03-23T03:12:23.938Z,7.10
2019-03-23T03:14:55.299Z,7.10
2019-03-23T03:17:26.546Z,7.10
2019-03-23T03:19:57.826Z,7.10
2019-03-23T03:22:30.120Z,7.20
2019-03-23T03:25:01.443Z,7.20
2019-03-23T03:27:33.835Z,7.20
2019-03-23T03:30:05.446Z,7.20
2019-03-23T03:32:36.924Z,7.20
2019-03-23T03:35:08.446Z,7.20
2019-03-23T03:37:39.719Z,7.20
2019-03-23T03:40:11.254Z,7.20
2019-03-23T03:42:42.560Z,7.20
2019-03-23T03:45:21.781Z,7.20
2019-03-23T03:47:53.016Z,7.20
2019-03-23T03:50:24.314Z,7.20
2019-03-23T03:52:55.551Z,7.20
2019-03-23T03:55:26.909Z,7.20
2019-03-23T03:57:58.269Z,7.20
2019-03-23T04:00:29.502Z,7.20
2019-03-23T04:03:00.693Z,7.20
2019-03-23T04:05:32.075Z,7.20
2019-03-23T04:08:11.274Z,7.20
2019-03-23T04:10:36.449Z,7.20
2019-03-23T04:13:07.660Z,7.20
2019-03-23T04:15:39.091Z,7.20
2019-03-23T04:18:10.341Z,7.10
2019-03-23T04:20:41.610Z,7.20
2019-03-23T04:23:12.908Z,7.10
2019-03-23T04:25:45.376Z,7.10
2019-03-23T04:28:16.648Z,7.10
2019-03-23T04:30:47.934Z,7.10
2019-03-23T04:33:19.324Z,7.10
2019-03-23T04:35:50.748Z,7.10
2019-03-23T04:38:23.206Z,7.10
2019-03-23T04:40:54.754Z,7.10
2019-03-23T04:43:26.029Z,7.10
2019-03-23T04:45:57.344Z,7.10
2019-03-23T04:48:28.743Z,7.10
2019-03-23T04:50:59.938Z,7.00
2019-03-23T04:53:31.428Z,7.00
2019-03-23T04:56:03.788Z,7.00
2019-03-23T04:58:35.064Z,6.90
2019-03-23T05:01:06.462Z,7.00
2019-03-23T05:03:37.746Z,6.90
2019-03-23T05:06:09.037Z,6.90
2019-03-23T05:08:40.249Z,6.90
2019-03-23T05:11:11.646Z,6.90
2019-03-23T05:13:42.809Z,6.90
2019-03-23T05:16:14.228Z,6.90
2019-03-23T05:18:45.609Z,6.90
2019-03-23T05:21:16.794Z,6.90
2019-03-23T05:23:48.020Z,6.90
2019-03-23T05:26:19.298Z,6.90
2019-03-23T05:28:50.624Z,6.90
2019-03-23T05:31:23.003Z,6.90
2019-03-23T05:33:54.328Z,6.90
2019-03-23T05:36:25.637Z,6.90
2019-03-23T05:38:57.026Z,6.90
2019-03-23T05:41:28.314Z,6.90
2019-03-23T05:43:59.493Z,7.00
2019-03-23T05:46:30.701Z,7.00
2019-03-23T05:49:01.988Z,7.00
2019-03-23T05:51:33.293Z,7.10
2019-03-23T05:54:04.592Z,7.10
2019-03-23T05:56:35.982Z,7.10
2019-03-23T05:59:07.290Z,7.20
2019-03-23T06:01:38.458Z,7.10
2019-03-23T06:04:09.678Z,7.20
2019-03-23T06:06:41.160Z,7.20
2019-03-23T06:09:12.412Z,7.20
2019-03-23T06:11:43.696Z,7.30
2019-03-23T06:14:14.869Z,7.30
2019-03-23T06:16:46.052Z,7.30
2019-03-23T06:19:17.384Z,7.30
2019-03-23T06:21:48.798Z,7.40
2019-03-23T06:24:20.048Z,7.40
2019-03-23T06:26:51.333Z,7.40
2019-03-23T06:29:22.740Z,7.40
2019-03-23T06:31:54.036Z,7.50
2019-03-23T06:34:25.344Z,7.50
2019-03-23T06:36:56.627Z,7.40
2019-03-23T06:39:27.923Z,7.40
2019-03-23T06:41:59.324Z,7.50
2019-03-23T06:44:30.624Z,7.50
2019-03-23T06:47:01.897Z,7.60
2019-03-23T06:49:33.215Z,7.50
2019-03-23T06:52:04.492Z,7.60
2019-03-23T06:54:35.812Z,7.60
2019-03-23T06:57:07.284Z,7.70
2019-03-23T06:59:38.535Z,7.60
2019-03-23T07:02:10.001Z,7.70
2019-03-23T07:04:41.221Z,7.80
2019-03-23T07:07:12.493Z,7.80
2019-03-23T07:09:43.796Z,7.90
2019-03-23T07:12:15.263Z,7.70
2019-03-23T07:14:46.590Z,7.80
2019-03-23T07:17:17.803Z,7.90
2019-03-23T07:19:49.075Z,7.90
2019-03-23T07:22:20.351Z,7.90
2019-03-23T07:24:51.570Z,8.00
2019-03-23T07:27:22.867Z,8.00
2019-03-23T07:29:54.040Z,8.10
2019-03-23T07:32:25.192Z,8.10
2019-03-23T07:34:56.358Z,8.10
2019-03-23T07:37:27.779Z,8.30
2019-03-23T07:39:59.042Z,8.20
2019-03-23T07:42:30.571Z,8.30
2019-03-23T07:45:01.835Z,8.10
2019-03-23T07:47:33.231Z,8.30
2019-03-23T07:50:04.745Z,8.50
2019-03-23T07:52:35.964Z,8.60
2019-03-23T07:55:16.519Z,8.70
2019-03-23T07:57:47.664Z,8.70
2019-03-23T08:00:19.691Z,8.90
2019-03-23T08:02:51.049Z,9.00
2019-03-23T08:05:22.531Z,9.10
2019-03-23T08:07:53.849Z,9.10
2019-03-23T08:10:30.160Z,9.20
2019-03-23T08:13:01.605Z,9.00
2019-03-23T08:15:32.838Z,9.00
2019-03-23T08:18:04.154Z,9.10
2019-03-23T08:20:35.554Z,9.30
2019-03-23T08:23:06.981Z,9.30
2019-03-23T08:25:38.512Z,9.50
2019-03-23T08:28:11.724Z,9.40
2019-03-23T08:30:43.034Z,9.30
2019-03-23T08:33:14.539Z,9.30
2019-03-23T08:35:45.836Z,9.10
2019-03-23T08:38:17.120Z,8.80
2019-03-23T08:40:48.560Z,8.80
2019-03-23T08:43:19.769Z,8.60
2019-03-23T08:45:50.955Z,8.60
2019-03-23T08:48:22.247Z,8.60
2019-03-23T08:50:53.624Z,8.60
2019-03-23T08:53:25.048Z,8.60
2019-03-23T08:55:56.412Z,8.90
2019-03-23T08:58:31.477Z,9.10
2019-03-23T09:01:02.616Z,9.10
2019-03-23T09:03:34.112Z,9.20
2019-03-23T09:06:05.472Z,9.30
2019-03-23T09:08:37.074Z,9.30
2019-03-23T09:11:08.420Z,9.10
2019-03-23T09:13:40.856Z,9.20
2019-03-23T09:16:12.421Z,9.40
2019-03-23T09:18:43.693Z,9.50
2019-03-23T09:21:15.117Z,9.60
2019-03-23T09:23:46.696Z,9.60
2019-03-23T09:26:17.961Z,9.70
2019-03-23T09:28:49.089Z,9.90
2019-03-23T09:31:20.293Z,10.00
2019-03-23T09:33:51.497Z,10.20
2019-03-23T09:36:23.163Z,10.30
2019-03-23T09:38:54.595Z,10.40
2019-03-23T09:41:25.772Z,10.40
2019-03-23T09:43:57.008Z,10.40
2019-03-23T09:46:28.382Z,10.80
2019-03-23T09:49:00.627Z,11.00
2019-03-23T09:51:32.982Z,10.90
2019-03-23T09:54:04.261Z,11.10
2019-03-23T09:56:35.514Z,11.20
2019-03-23T09:59:06.722Z,11.30
2019-03-23T10:01:38.140Z,11.30
2019-03-23T10:04:09.389Z,11.40
2019-03-23T10:06:40.758Z,11.30
2019-03-23T10:09:12.100Z,11.40
2019-03-23T10:11:43.507Z,11.40
2019-03-23T10:14:14.902Z,11.40
2019-03-23T10:16:46.193Z,11.30
2019-03-23T10:19:17.389Z,11.40
2019-03-23T10:21:48.605Z,11.20
2019-03-23T10:24:19.985Z,11.10
2019-03-23T10:26:52.227Z,11.20
2019-03-23T10:29:23.589Z,11.30
2019-03-23T10:31:55.838Z,11.30
2019-03-23T10:34:27.321Z,11.40
2019-03-23T10:36:58.870Z,11.20
2019-03-23T10:39:30.149Z,11.00
2019-03-23T10:42:01.513Z,11.10
2019-03-23T10:44:32.922Z,11.10
2019-03-23T10:47:04.090Z,11.10
2019-03-23T10:49:35.434Z,11.20
2019-03-23T10:52:06.743Z,11.20
2019-03-23T10:54:37.976Z,11.10
2019-03-23T10:57:09.393Z,11.20
2019-03-23T10:59:40.787Z,11.20
2019-03-23T11:02:12.121Z,11.00
2019-03-23T11:04:43.593Z,10.90
2019-03-23T11:07:15.468Z,10.60
2019-03-23T11:09:46.701Z,10.70
2019-03-23T11:12:17.970Z,10.60
2019-03-23T11:14:49.209Z,10.50
2019-03-23T11:17:20.692Z,10.40
2019-03-23T11:19:51.921Z,10.40
2019-03-23T11:22:23.326Z,10.50
2019-03-23T11:24:54.456Z,10.50
2019-03-23T11:27:25.780Z,10.50
2019-03-23T11:29:56.955Z,10.40
2019-03-23T11:32:28.479Z,10.70
2019-03-23T11:34:59.732Z,10.50
2019-03-23T11:37:31.343Z,10.30
2019-03-23T11:40:02.769Z,10.40
2019-03-23T11:42:34.142Z,10.60
2019-03-23T11:45:05.623Z,10.70
2019-03-23T11:47:36.787Z,10.70
2019-03-23T11:50:07.886Z,10.80
2019-03-23T11:52:40.405Z,10.80
2019-03-23T11:55:11.561Z,11.00
2019-03-23T11:57:43.877Z,11.40
2019-03-23T12:00:16.292Z,11.40
2019-03-23T12:02:47.602Z,11.30
2019-03-23T12:05:18.586Z,11.20
2019-03-23T12:07:49.875Z,11.40
2019-03-23T12:10:21.189Z,11.60
2019-03-23T12:12:52.549Z,11.50
2019-03-23T12:15:23.804Z,11.50
2019-03-23T12:17:55.058Z,11.60
2019-03-23T12:20:26.277Z,11.80
2019-03-23T12:22:57.566Z,12.30
2019-03-23T12:25:28.781Z,12.30
2019-03-23T12:28:00.156Z,12.70
2019-03-23T12:30:31.278Z,12.70
2019-03-23T12:33:02.558Z,12.70
2019-03-23T12:35:33.749Z,12.80
2019-03-23T12:38:05.175Z,13.30
2019-03-23T12:40:36.563Z,13.40
2019-03-23T12:43:08.025Z,13.40
2019-03-23T12:45:39.447Z,13.40
2019-03-23T12:48:10.718Z,13.20
2019-03-23T12:50:42.206Z,13.30
2019-03-23T12:53:13.819Z,13.30
2019-03-23T12:55:45.346Z,13.40
2019-03-23T12:58:16.621Z,13.40
2019-03-23T13:00:47.941Z,13.50
2019-03-23T13:03:19.225Z,13.70
2019-03-23T13:05:50.333Z,13.80
2019-03-23T13:08:21.638Z,13.70
2019-03-23T13:10:52.910Z,13.90
2019-03-23T13:13:24.240Z,13.80
2019-03-23T13:15:55.499Z,13.60
2019-03-23T13:18:27.553Z,13.50
2019-03-23T13:20:58.731Z,13.40
2019-03-23T13:23:30.329Z,13.60
2019-03-23T13:26:01.642Z,13.60
2019-03-23T13:28:33.051Z,13.30
2019-03-23T13:31:04.400Z,13.40
2019-03-23T13:33:35.613Z,13.30
2019-03-23T13:36:07.238Z,13.40
2019-03-23T13:38:38.613Z,13.50
2019-03-23T13:41:10.008Z,13.50
2019-03-23T13:43:41.337Z,13.70
2019-03-23T13:46:12.642Z,13.80
2019-03-23T13:48:44.043Z,13.50
2019-03-23T13:51:15.310Z,13.30
2019-03-23T13:53:47.534Z,13.10
2019-03-23T13:56:18.733Z,13.40
2019-03-23T13:58:50.117Z,13.50
2019-03-23T14:01:21.330Z,13.20
2019-03-23T14:03:52.701Z,13.10
2019-03-23T14:06:23.882Z,13.10
2019-03-23T14:08:55.296Z,13.20
2019-03-23T14:11:26.586Z,13.30
2019-03-23T14:13:58.020Z,13.30
2019-03-23T14:16:29.299Z,13.20
2019-03-23T14:19:00.567Z,13.30
2019-03-23T14:21:31.990Z,13.20
2019-03-23T14:24:03.315Z,13.20
2019-03-23T14:26:34.480Z,13.00
2019-03-23T14:29:05.865Z,13.00
2019-03-23T14:31:37.105Z,13.10
2019-03-23T14:34:08.381Z,13.10
2019-03-23T14:37:06.485Z,13.10
2019-03-23T14:39:37.923Z,13.10
2019-03-23T14:42:09.301Z,13.10
2019-03-23T14:44:40.722Z,13.10
2019-03-23T14:47:12.002Z,13.10
2019-03-23T14:49:43.302Z,12.90
2019-03-23T14:52:14.587Z,12.90
2019-03-23T14:54:45.867Z,12.90
2019-03-23T14:57:17.117Z,12.80
2019-03-23T14:59:48.373Z,12.80
2019-03-23T15:02:19.589Z,12.80
2019-03-23T15:04:50.984Z,12.80
2019-03-23T15:07:23.285Z,12.80
2019-03-23T15:09:54.676Z,12.70
2019-03-23T15:12:25.988Z,12.70
2019-03-23T15:14:57.370Z,12.70
2019-03-23T15:17:28.573Z,12.70
2019-03-23T15:19:59.839Z,12.50
2019-03-23T15:22:31.320Z,12.40
2019-03-23T15:25:03.691Z,12.40
2019-03-23T15:27:34.966Z,12.40
2019-03-23T15:30:06.479Z,12.40
2019-03-23T15:32:37.771Z,12.30
2019-03-23T15:35:09.080Z,12.30
2019-03-23T15:37:40.279Z,12.30
2019-03-23T15:40:11.556Z,12.30
2019-03-23T15:42:42.873Z,12.20
2019-03-23T15:45:14.177Z,12.20
2019-03-23T15:47:45.365Z,12.10
2019-03-23T15:50:16.653Z,12.10
2019-03-23T15:52:48.035Z,12.10
2019-03-23T15:55:19.352Z,12.00
2019-03-23T15:57:50.531Z,11.90
2019-03-23T16:00:21.894Z,11.80
2019-03-23T16:02:53.168Z,11.70
2019-03-23T16:05:24.878Z,11.60
2019-03-23T16:07:56.251Z,11.60
2019-03-23T16:10:27.574Z,11.60
2019-03-23T16:12:58.852Z,11.60
2019-03-23T16:15:30.143Z,11.60
2019-03-23T16:18:01.744Z,11.60
2019-03-23T16:20:33.073Z,11.60
2019-03-23T16:23:04.417Z,11.60
2019-03-23T16:25:35.600Z,11.70
2019-03-23T16:28:06.805Z,11.80
2019-03-23T16:30:38.216Z,11.80
2019-03-23T16:33:09.523Z,11.80
2019-03-23T16:35:40.693Z,11.80
2019-03-23T16:38:12.014Z,11.80
2019-03-23T16:40:43.328Z,11.80
2019-03-23T16:43:14.808Z,11.70
2019-03-23T16:45:46.300Z,11.70
2019-03-23T16:48:17.606Z,11.60
2019-03-23T16:50:48.894Z,11.60
2019-03-23T16:53:20.014Z,11.50
2019-03-23T16:55:51.080Z,11.40
2019-03-23T16:58:22.385Z,11.40
2019-03-23T17:00:53.672Z,11.40
2019-03-23T17:03:25.208Z,11.40
2019-03-23T17:05:56.450Z,11.30
2019-03-23T17:08:27.585Z,11.20
2019-03-23T17:10:58.988Z,11.20
2019-03-23T17:13:30.056Z,11.10
2019-03-23T17:16:01.554Z,11.10
2019-03-23T17:18:32.839Z,11.10
2019-03-23T17:21:04.248Z,11.00
2019-03-23T17:23:35.548Z,11.00
2019-03-23T17:26:06.841Z,11.00
2019-03-23T17:28:38.156Z,10.90
2019-03-23T17:31:09.538Z,10.90
2019-03-23T17:33:40.946Z,10.90
2019-03-23T17:36:12.144Z,10.80
2019-03-23T17:38:43.466Z,10.80
2019-03-23T17:41:14.906Z,10.70
2019-03-23T17:44:13.045Z,10.70
2019-03-23T17:46:44.330Z,10.60
2019-03-23T17:49:15.653Z,10.60
2019-03-23T17:51:46.964Z,10.60
2019-03-23T17:54:18.381Z,10.60
2019-03-23T17:56:49.773Z,10.60
2019-03-23T17:59:20.919Z,10.60
2019-03-23T18:01:52.355Z,10.50
2019-03-23T18:04:23.731Z,10.50
2019-03-23T18:06:54.925Z,10.50
2019-03-23T18:09:26.215Z,10.50
2019-03-23T18:11:57.454Z,10.60
2019-03-23T18:14:28.618Z,10.60
2019-03-23T18:16:59.908Z,10.60
2019-03-23T18:19:31.222Z,10.50
2019-03-23T18:22:02.641Z,10.50
2019-03-23T18:24:33.889Z,10.40
2019-03-23T18:27:05.231Z,10.30
2019-03-23T18:29:36.603Z,10.30
2019-03-23T18:32:07.909Z,10.10
2019-03-23T18:34:39.171Z,10.10
2019-03-23T18:37:10.591Z,10.00
2019-03-23T18:39:41.768Z,10.00
2019-03-23T18:42:13.085Z,9.90
2019-03-23T18:44:44.516Z,9.90
2019-03-23T18:47:15.796Z,9.80
2019-03-23T18:49:47.077Z,9.80
2019-03-23T18:52:18.376Z,9.70
2019-03-23T18:54:49.545Z,9.70
2019-03-23T18:57:20.857Z,9.60
2019-03-23T18:59:53.180Z,9.50
2019-03-23T19:02:24.486Z,9.40
2019-03-23T19:04:55.886Z,9.30
2019-03-23T19:07:27.181Z,9.30
2019-03-23T19:09:58.380Z,9.30
2019-03-23T19:12:29.696Z,9.30
2019-03-23T19:15:00.964Z,9.30
2019-03-23T19:17:32.346Z,9.20
2019-03-23T19:20:03.536Z,9.10
2019-03-23T19:22:34.844Z,9.10
2019-03-23T19:25:15.789Z,9.10
2019-03-23T19:27:39.196Z,9.00
2019-03-23T19:30:10.579Z,9.00
2019-03-23T19:32:42.078Z,9.00
2019-03-23T19:35:13.385Z,8.90
2019-03-23T19:37:44.681Z,8.90
2019-03-23T19:40:15.954Z,8.90
2019-03-23T19:42:47.294Z,8.90
2019-03-23T19:45:18.605Z,8.90
2019-03-23T19:47:50.028Z,8.90
2019-03-23T19:50:21.388Z,8.90
2019-03-23T19:52:52.788Z,8.80
2019-03-23T19:55:23.980Z,8.80
2019-03-23T19:57:55.356Z,8.70
2019-03-23T20:00:26.476Z,8.70
2019-03-23T20:02:57.831Z,8.60
2019-03-23T20:05:29.126Z,8.60
2019-03-23T20:08:00.558Z,8.60
2019-03-23T20:10:31.827Z,8.50
2019-03-23T20:13:03.132Z,8.50
2019-03-23T20:15:34.228Z,8.40
2019-03-23T20:18:05.573Z,8.40
2019-03-23T20:20:36.901Z,8.30
2019-03-23T20:23:08.248Z,8.30
2019-03-23T20:25:39.860Z,8.20
2019-03-23T20:28:11.263Z,8.20
2019-03-23T20:30:42.429Z,8.20
2019-03-23T20:33:19.460Z,8.10
2019-03-23T20:35:46.759Z,8.10
2019-03-23T20:38:18.161Z,8.00
2019-03-23T20:40:49.343Z,7.90
2019-03-23T20:43:20.730Z,7.80
2019-03-23T20:45:52.040Z,7.80
2019-03-23T20:48:23.359Z,7.80
2019-03-23T20:50:54.631Z,7.80
2019-03-23T20:53:25.944Z,7.70
2019-03-23T20:55:57.104Z,7.60
2019-03-23T20:58:28.352Z,7.60
2019-03-23T21:00:59.795Z,7.70
2019-03-23T21:03:31.151Z,7.60
2019-03-23T21:06:02.429Z,7.60
2019-03-23T21:08:33.932Z,7.60
2019-03-23T21:11:05.197Z,7.60
2019-03-23T21:13:36.522Z,7.60
2019-03-23T21:16:07.679Z,7.60
2019-03-23T21:18:39.026Z,7.50
2019-03-23T21:21:10.336Z,7.50
2019-03-23T21:23:41.624Z,7.50
2019-03-23T21:26:13.833Z,7.40
2019-03-23T21:28:45.099Z,7.40
2019-03-23T21:31:16.444Z,7.40
2019-03-23T21:33:47.761Z,7.30
2019-03-23T21:36:19.250Z,7.30
2019-03-23T21:38:50.528Z,7.30
2019-03-23T21:41:21.833Z,7.30
2019-03-23T21:43:53.300Z,7.20
2019-03-23T21:46:24.539Z,7.30
2019-03-23T21:48:55.758Z,7.30
2019-03-23T21:51:27.930Z,7.20
2019-03-23T21:53:59.175Z,7.20
2019-03-23T21:56:30.413Z,7.20
2019-03-23T21:59:01.738Z,7.10
2019-03-23T22:01:33.105Z,7.00
2019-03-23T22:04:05.263Z,6.90
2019-03-23T22:06:36.561Z,6.90
2019-03-23T22:09:08.336Z,6.80
2019-03-23T22:11:39.664Z,6.80
2019-03-23T22:14:10.831Z,6.80
2019-03-23T22:16:42.163Z,6.80
2019-03-23T22:19:13.475Z,6.80
2019-03-23T22:21:44.582Z,6.70
2019-03-23T22:24:15.923Z,6.70
2019-03-23T22:26:47.215Z,6.70
2019-03-23T22:29:18.311Z,6.70
2019-03-23T22:31:49.821Z,6.60
2019-03-23T22:34:21.093Z,6.60
2019-03-23T22:36:52.426Z,6.50
2019-03-23T22:39:23.597Z,6.50
2019-03-23T22:41:54.994Z,6.40
2019-03-23T22:44:26.122Z,6.50
2019-03-23T22:46:57.474Z,6.50
2019-03-23T22:49:28.789Z,6.40
2019-03-23T22:51:59.974Z,6.40
2019-03-23T22:54:31.361Z,6.40
2019-03-23T22:57:02.678Z,6.30
2019-03-23T22:59:34.057Z,6.30
2019-03-23T23:02:05.368Z,6.20
2019-03-23T23:04:37.781Z,6.10
2019-03-23T23:07:08.993Z,6.10
2019-03-23T23:09:40.386Z,6.10
2019-03-23T23:12:11.715Z,6.00
2019-03-23T23:14:44.779Z,6.00
2019-03-23T23:17:16.263Z,6.00
2019-03-23T23:19:47.601Z,6.00
2019-03-23T23:22:19.107Z,5.90
2019-03-23T23:24:50.385Z,5.90
2019-03-23T23:27:21.796Z,5.90
2019-03-23T23:29:53.293Z,5.80
2019-03-23T23:32:25.804Z,5.80
2019-03-23T23:34:57.313Z,5.70
2019-03-23T23:37:28.739Z,5.70
2019-03-23T23:40:00.343Z,5.70
2019-03-23T23:42:31.839Z,5.60
2019-03-23T23:45:03.305Z,5.60
2019-03-23T23:47:34.940Z,5.60
2019-03-23T23:50:06.306Z,5.60
2019-03-23T23:52:37.728Z,5.50
2019-03-23T23:55:09.287Z,5.50
2019-03-23T23:57:40.944Z,5.40
